Date,TemperatureHighF,TemperatureAvgF,TemperatureLowF,DewpointHighF,DewpointAvgF,DewpointLowF,HumidityHigh,HumidityAvg,HumidityLow,PressureMaxIn,PressureMinIn,WindSpeedMaxMPH,WindSpeedAvgMPH,GustSpeedMaxMPH,PrecipitationSumIn
2013-1-1,42.3,39.5,35.4,24.9,22.5,17.9,57,50,43,30.03,29.91,6,2,12,0.00
2013-1-2,38.7,32.6,27.5,20.2,13.3,8.7,54,45,37,30.24,29.97,6,2,13,0.00
2013-1-3,41.4,31.5,24.3,17.3,12.2,8.3,52,44,36,30.26,30.12,5,1,10,0.00
2013-1-4,44.6,35.2,29.3,20.7,16.2,13.4,52,46,38,30.21,30.09,6,2,17,0.00
2013-1-5,46.2,37.3,30.4,22.3,18.3,14.3,56,46,38,30.38,30.09,5,1,10,0.00
2013-1-6,54.5,42.7,32.7,32.7,25.2,21.9,74,51,33,30.21,30.00,7,1,11,0.00
2013-1-7,47.3,40.0,32.4,26.6,22.0,17.9,57,49,40,30.44,30.12,7,1,13,0.00
2013-1-8,56.1,41.6,31.8,31.7,25.0,18.9,68,53,35,30.44,30.35,5,1,9,0.00
2013-1-9,50.8,42.1,32.2,37.9,31.1,23.8,76,65,50,30.41,30.21,6,1,10,0.00
2013-1-10,54.3,45.3,38.7,31.5,24.6,21.5,61,44,36,30.59,30.35,6,1,12,0.00
2013-1-11,44.6,41.8,38.7,39.8,30.1,21.8,88,64,46,30.50,30.09,6,1,10,0.29
2013-1-12,58.5,47.8,42.1,48.0,41.9,39.4,93,81,62,30.21,30.09,3,0,6,0.00
2013-1-13,48.7,45.4,41.5,48.2,43.7,39.7,98,94,80,30.15,29.97,6,2,9,0.00
2013-1-14,54.7,49.7,39.9,53.9,44.4,30.4,98,83,52,30.30,29.97,6,1,13,0.21
2013-1-15,39.9,37.7,34.5,36.6,34.0,30.9,89,86,83,30.30,30.15,3,1,6,0.42
2013-1-16,40.6,37.3,34.0,38.5,35.0,31.2,93,91,87,30.18,29.85,7,1,12,0.67
2013-1-17,44.4,40.6,36.9,38.4,28.1,24.4,91,61,51,30.12,29.97,6,1,13,0.00
2013-1-18,38.8,34.1,30.2,26.4,14.1,7.8,67,45,32,30.47,30.06,7,2,21,0.00
2013-1-19,54.3,41.2,30.2,26.7,19.7,9.4,59,43,31,30.41,29.94,8,5,15,0.00
2013-1-20,59.8,45.1,33.4,30.1,20.1,7.9,53,38,26,30.09,29.79,8,4,20,0.00
2013-1-21,40.5,32.5,27.9,21.6,12.6,7.7,58,43,37,30.12,29.79,9,3,19,0.00
2013-1-22,27.9,21.0,15.3,7.7,-1.8,-6.3,42,36,32,30.30,29.91,9,4,20,0.00
2013-1-23,27.8,20.2,13.5,1.7,-2.4,-6.2,44,37,32,30.32,30.15,6,3,7,0.00
2013-1-24,27.8,21.2,15.4,7.8,2.6,-2.7,62,45,33,30.50,30.09,2,2,3,0.00
2013-1-25,25.0,20.4,17.1,11.6,3.0,-2.3,66,47,35,30.47,30.03,6,2,10,0.00
2013-1-26,33.8,25.8,21.0,16.4,12.0,9.3,69,56,43,30.41,30.06,6,1,14,0.00
2013-1-27,41.0,30.1,21.4,17.5,13.5,9.6,64,51,36,30.59,30.41,5,1,9,0.04
2013-1-28,38.1,34.0,30.2,34.9,27.8,17.2,90,78,58,30.50,30.03,6,2,10,0.13
2013-1-29,64.8,49.1,37.4,49.0,41.6,34.5,95,77,49,30.15,30.00,7,2,10,0.00
2013-1-30,66.7,53.5,44.1,60.1,51.1,41.4,98,92,73,30.00,29.26,10,3,20,1.45
2013-1-31,57.6,43.0,29.1,57.0,26.4,8.3,98,54,35,29.88,29.14,10,5,26,0.76
2013-2-1,32.7,26.9,19.6,20.7,7.9,0.4,75,45,35,30.35,29.85,12,4,23,0.00
2013-2-2,29.7,23.8,16.9,20.8,8.0,0.3,74,52,35,30.38,30.00,7,3,12,0.00
2013-2-3,36.0,29.6,23.7,25.1,20.7,12.5,78,70,51,30.00,29.79,7,1,24,0.05
2013-2-4,36.5,29.8,21.9,16.6,11.4,6.4,54,46,39,30.12,29.91,7,2,16,0.00
2013-2-5,36.9,33.5,30.7,26.5,22.5,16.8,77,64,53,29.97,29.85,3,1,7,0.00
2013-2-6,43.2,34.8,28.9,27.6,22.6,14.4,79,62,42,30.35,29.94,6,1,14,0.04
2013-2-7,37.0,32.4,26.4,22.4,16.4,12.0,63,52,40,30.47,30.21,7,3,10,0.00
2013-2-8,40.9,37.0,33.4,38.2,31.2,19.4,94,80,56,30.26,29.73,8,3,23,0.16
2013-2-9,39.3,31.8,26.1,20.1,13.1,9.8,58,46,39,30.35,29.88,10,4,24,0.00
2013-2-10,44.8,33.8,22.7,20.5,12.9,8.8,57,43,28,30.50,30.26,7,3,13,0.00
2013-2-11,51.1,42.4,33.6,49.2,38.6,20.5,97,87,53,30.26,29.67,9,3,14,0.43
2013-2-12,54.3,45.2,35.6,37.0,25.9,20.1,77,47,36,30.00,29.79,7,2,20,0.00
2013-2-13,35.6,33.7,30.6,29.7,25.2,19.3,84,72,53,30.00,29.67,2,0,5,0.00
2013-2-14,50.2,39.0,32.2,30.9,27.2,22.4,87,65,37,30.03,29.76,5,1,9,0.33
2013-2-15,61.5,44.5,34.0,35.0,29.9,25.0,82,60,32,30.06,29.91,6,2,20,0.13
2013-2-16,37.2,35.0,31.3,31.8,26.4,16.1,87,71,53,30.00,29.79,6,2,12,0.04
2013-2-17,34.6,28.3,22.8,16.1,9.3,3.1,56,45,34,30.18,29.79,8,4,22,0.00
2013-2-18,44.6,31.3,20.1,17.6,8.5,1.7,55,39,28,30.38,30.15,6,3,14,0.00
2013-2-19,43.5,37.6,31.3,39.6,27.1,17.1,88,67,45,30.18,29.73,10,4,18,0.12
2013-2-20,35.6,31.0,24.1,18.6,11.6,5.2,52,44,39,30.12,29.85,9,4,18,0.00
2013-2-21,39.2,29.5,22.3,16.0,10.1,5.4,52,44,36,30.30,30.09,8,3,15,0.00
2013-2-22,34.0,30.8,27.9,26.6,17.0,10.7,78,57,48,30.41,30.21,7,2,11,0.00
2013-2-23,45.7,38.2,32.7,44.2,35.7,26.6,97,91,78,30.24,29.79,5,1,9,0.13
2013-2-24,51.8,41.4,31.6,42.6,28.9,16.0,97,65,36,30.09,29.79,8,3,24,0.00
2013-2-25,50.7,38.6,28.9,25.0,19.0,14.7,55,46,35,30.24,30.09,8,2,12,0.00
2013-2-26,42.4,37.1,29.5,40.2,28.4,17.7,97,71,52,30.24,29.65,14,4,23,0.63
2013-2-27,57.4,47.5,41.0,46.2,37.3,28.2,98,72,42,29.67,29.50,9,3,17,0.08
2013-2-28,50.9,43.2,37.8,31.5,26.4,22.1,65,52,37,29.73,29.62,6,2,17,0.00
2013-3-1,47.9,40.3,36.3,29.3,24.9,20.5,64,54,42,29.88,29.70,7,2,14,0.00
2013-3-2,41.5,35.5,31.5,22.9,19.1,16.0,57,51,42,29.88,29.79,6,2,14,0.00
2013-3-3,39.2,33.7,29.5,19.0,15.8,12.7,55,48,40,29.88,29.76,7,3,17,0.00
2013-3-4,43.7,34.2,25.9,19.4,13.7,9.2,50,43,35,30.00,29.85,8,4,21,0.00
2013-3-5,51.4,38.4,27.3,24.2,18.2,11.5,56,44,32,30.09,29.85,7,3,14,0.00
2013-3-6,38.1,35.8,33.4,34.6,31.2,21.5,94,84,53,29.97,29.67,10,6,20,0.63
2013-3-7,49.8,40.9,33.8,25.8,22.7,17.9,67,49,37,30.15,29.97,8,4,18,0.00
2013-3-8,49.5,40.9,33.3,25.0,20.5,17.0,55,44,37,30.26,30.09,10,5,32,0.00
2013-3-9,63.2,47.1,33.8,25.8,19.8,14.2,50,35,21,30.38,30.21,6,2,13,0.00
2013-3-10,61.9,47.9,34.2,31.7,21.3,13.9,66,37,17,30.35,30.21,10,3,15,0.00
2013-3-11,56.7,48.5,40.3,45.5,39.7,31.0,86,72,59,30.30,29.97,13,5,18,0.00
2013-3-12,57.9,51.3,41.0,55.9,43.8,26.2,98,77,51,30.00,29.73,12,5,23,0.96
2013-3-13,41.2,39.2,37.0,26.2,25.2,24.4,61,57,54,29.97,29.94,3,1,14,0.00
2013-3-16,46.9,40.6,36.7,32.8,30.2,29.0,74,67,54,29.94,29.67,7,3,10,0.00
2013-3-17,42.1,37.6,35.1,29.4,24.2,16.7,77,59,44,30.30,29.91,6,2,13,0.00
2013-3-18,37.0,35.5,34.0,34.4,23.3,13.3,92,63,42,30.35,29.88,8,3,14,0.41
2013-3-19,59.4,45.1,36.5,42.6,30.1,13.9,95,63,26,29.91,29.67,8,2,20,0.04
2013-3-20,54.3,43.7,32.7,20.2,15.9,12.3,45,33,23,30.00,29.76,8,3,17,0.00
2013-3-21,41.9,35.4,28.4,22.1,13.0,5.3,63,40,31,29.88,29.73,7,3,19,0.00
2013-3-22,48.7,36.4,27.1,18.3,12.7,6.8,44,38,29,30.00,29.85,7,2,13,0.00
2013-3-23,52.3,40.6,29.7,24.1,17.5,12.1,53,40,29,30.03,29.88,8,2,15,0.00
2013-3-24,47.3,38.6,31.1,26.9,18.0,13.4,68,44,35,30.03,29.67,7,2,13,0.00
2013-3-25,37.6,35.3,33.1,32.9,29.4,23.8,87,79,60,29.70,29.50,6,1,10,0.13
2013-3-26,53.2,41.9,32.5,32.0,28.2,23.1,87,61,35,29.97,29.67,6,2,15,0.29
2013-3-27,52.1,43.5,37.6,27.4,24.6,20.5,61,48,35,30.09,29.97,7,3,23,0.00
2013-3-28,49.3,42.5,36.1,33.3,25.2,21.8,69,51,37,30.21,30.09,7,2,14,0.00
2013-3-29,58.3,48.1,38.7,30.7,24.7,21.6,52,40,29,30.26,30.09,6,2,14,0.00
2013-3-30,63.3,49.0,35.6,30.5,24.0,18.6,62,40,24,30.26,30.09,6,1,10,0.00
2013-3-31,52.9,46.8,42.3,47.8,36.1,21.6,92,68,39,30.15,29.73,9,2,14,0.08
2013-4-1,66.9,50.4,39.2,43.3,33.7,13.1,91,57,31,29.97,29.73,9,3,18,0.00
2013-4-2,50.4,40.5,31.5,19.1,13.8,8.5,44,34,27,30.18,29.97,7,2,15,0.00
2013-4-3,54.0,41.0,30.9,20.1,13.2,8.2,42,33,22,30.38,30.15,8,2,23,0.00
2013-4-4,53.1,40.6,28.6,21.5,14.3,7.5,43,34,24,30.44,30.09,7,3,12,0.00
2013-4-5,66.4,50.9,38.1,36.8,27.0,15.4,80,45,23,30.09,29.79,7,2,17,0.08
2013-4-6,59.3,47.6,36.1,25.6,17.5,11.4,46,30,22,30.32,30.03,8,3,12,0.00
2013-4-7,64.9,52.3,41.2,40.0,33.7,26.1,70,50,37,30.30,29.97,9,5,17,0.00
2013-4-8,79.4,65.4,52.4,46.7,41.8,36.5,59,44,27,30.09,29.91,9,2,15,0.00
2013-4-9,87.3,72.6,60.6,50.7,47.3,45.0,59,42,26,30.09,29.85,7,2,14,0.00
2013-4-10,92.6,77.1,63.5,53.9,48.6,45.7,56,39,22,29.97,29.67,9,2,15,0.00
2013-4-11,84.4,69.3,53.6,57.7,52.7,47.8,85,58,33,29.88,29.70,10,4,19,0.00
2013-4-12,61.1,53.2,48.9,56.9,51.0,48.1,98,92,83,29.82,29.62,8,4,14,0.67
2013-4-13,68.0,56.6,44.2,48.2,39.8,33.2,94,58,29,29.94,29.73,7,2,12,0.04
2013-4-14,68.4,57.0,44.2,39.4,33.9,29.3,69,44,27,30.12,29.91,6,1,13,0.00
2013-4-15,61.2,56.4,53.1,45.8,41.2,35.4,73,57,45,30.32,30.09,9,4,14,0.00
2013-4-16,72.7,61.3,53.2,52.7,49.2,44.8,76,65,49,30.32,30.09,12,4,20,0.00
2013-4-17,72.9,64.5,58.0,59.5,53.2,49.2,90,68,50,30.24,30.09,7,2,13,0.00
2013-4-18,71.2,61.9,57.0,62.4,53.8,47.5,95,76,61,30.24,30.00,10,5,16,0.09
2013-4-19,72.9,64.1,53.3,63.7,59.1,47.7,96,84,67,30.00,29.56,12,5,18,1.00
2013-4-20,62.6,53.2,46.4,47.6,32.7,22.1,84,50,28,30.32,29.76,6,2,20,0.08
2013-4-21,59.4,48.5,37.8,28.0,22.0,16.9,52,36,26,30.59,30.32,7,3,13,0.00
2013-4-22,58.9,48.5,38.1,32.1,29.1,26.6,67,48,35,30.59,30.38,9,3,15,0.00
2013-4-23,64.3,52.9,45.7,39.9,36.4,30.9,70,55,36,30.41,30.09,7,2,10,0.00
2013-4-24,73.6,60.6,47.3,54.5,47.1,39.6,84,63,44,30.15,29.73,10,4,22,0.00
2013-4-25,67.6,57.1,45.1,44.2,30.3,23.9,54,37,24,30.30,29.94,9,3,18,0.00
2013-4-26,68.9,57.3,46.2,34.9,29.5,23.5,54,36,23,30.44,30.26,7,1,14,0.00
2013-4-27,73.6,59.0,41.7,35.8,30.3,24.9,67,36,22,30.47,30.26,7,2,10,0.00
2013-4-28,71.1,60.3,49.3,39.2,34.4,29.2,60,39,24,30.32,30.12,10,4,17,0.00
2013-4-29,58.5,56.1,53.1,56.1,50.5,31.9,94,83,37,30.18,30.06,8,3,15,0.50
2013-4-30,64.4,57.8,53.6,55.1,50.3,33.9,97,78,45,30.30,30.09,8,3,12,0.13
2013-5-1,68.6,58.6,46.0,37.3,35.1,32.1,64,43,28,30.44,30.26,6,1,12,0.29
2013-12-21,67.7,67.3,66.9,65.9,65.2,64.5,94,93,92,30.53,30.47,2,1,6,0.29